Terminal Aerodrome Forecast
Issued by NWS

Home | Current Version | Previous Version | Text Only | Print | Product List | Glossary On
Versions: 1 2 3 4 5 6 7 8 9 10 11 12 13 14 15 16 17 18
000
FTUS46 KMFR 211400 AAA
TAFOTH
TAF AMD
KOTH 211404Z 2114/2212 VRB03KT P6SM OVC008
     FM211800 23008KT P6SM SCT010
     FM212200 25011KT P6SM BKN015
     FM220200 VRB03KT P6SM OVC010=

USA.gov is the U.S. government's official web portal to all federal, state and local government web resources and services.